createdAt,value
2022-11-19T00:00:55.681Z,96.77
2022-11-19T00:03:23.550Z,96.66
2022-11-19T00:05:50.302Z,97.09
2022-11-19T00:08:18.758Z,97.12
2022-11-19T00:10:46.199Z,97.44
2022-11-19T00:13:14.219Z,96.78
2022-11-19T00:15:41.208Z,96.86
2022-11-19T00:18:08.142Z,96.38
2022-11-19T00:20:35.106Z,95.51
2022-11-19T00:23:01.697Z,95.09
2022-11-19T00:25:30.026Z,94.93
2022-11-19T00:27:57.500Z,94.32
2022-11-19T00:30:47.144Z,94.69
2022-11-19T00:33:10.836Z,93.84
2022-11-19T00:35:37.288Z,93.77
2022-11-19T00:38:03.758Z,93.49
2022-11-19T00:40:30.352Z,93.29
2022-11-19T00:43:15.516Z,93.78
2022-11-19T00:45:44.391Z,93.40
2022-11-19T00:48:11.014Z,93.82
2022-11-19T00:50:37.460Z,93.83
2022-11-19T00:53:03.924Z,93.83
2022-11-19T00:55:30.373Z,94.15
2022-11-19T00:57:56.829Z,94.64
2022-11-19T01:00:23.365Z,95.58
2022-11-19T01:02:49.897Z,95.50
2022-11-19T01:05:16.365Z,96.09
2022-11-19T01:07:42.893Z,96.01
2022-11-19T01:10:09.446Z,96.28
2022-11-19T01:12:55.958Z,95.82
2022-11-19T01:15:22.406Z,95.00
2022-11-19T01:17:48.871Z,94.53
2022-11-19T01:20:15.942Z,93.79
2022-11-19T01:22:42.505Z,93.39
2022-11-19T01:25:09.797Z,93.64
2022-11-19T01:27:36.264Z,94.14
2022-11-19T01:30:02.720Z,93.14
2022-11-19T01:32:29.163Z,92.91
2022-11-19T01:34:55.604Z,93.47
2022-11-19T01:37:22.086Z,93.69
2022-11-19T01:39:48.529Z,94.09
2022-11-19T01:42:49.972Z,93.76
2022-11-19T01:45:28.518Z,93.06
2022-11-19T01:48:16.607Z,92.87
2022-11-19T01:50:46.321Z,92.87
2022-11-19T01:53:13.516Z,93.00
2022-11-19T01:55:41.770Z,93.92
2022-11-19T01:58:08.230Z,94.71
2022-11-19T02:00:34.804Z,94.86
2022-11-19T02:03:01.257Z,94.90
2022-11-19T02:05:28.213Z,95.10
2022-11-19T02:07:57.522Z,95.13
2022-11-19T02:10:41.017Z,95.42
2022-11-19T02:13:28.192Z,94.67
2022-11-19T02:16:02.121Z,94.27
2022-11-19T02:18:38.076Z,94.43
2022-11-19T02:21:34.401Z,94.36
2022-11-19T02:24:03.747Z,94.52
2022-11-19T02:26:44.422Z,94.46
2022-11-19T02:29:29.077Z,93.90
2022-11-19T02:32:08.437Z,94.01
2022-11-19T02:34:58.519Z,93.71
2022-11-19T02:37:31.546Z,93.56
2022-11-19T02:40:14.008Z,93.50
2022-11-19T02:42:55.163Z,93.67
2022-11-19T02:45:30.337Z,93.02
2022-11-19T02:48:23.917Z,93.63
2022-11-19T02:50:55.412Z,93.24
2022-11-19T02:53:23.465Z,92.51
2022-11-19T02:56:08.452Z,92.82
2022-11-19T02:58:53.969Z,93.27
2022-11-19T03:01:40.767Z,92.99
2022-11-19T03:04:26.769Z,93.13
2022-11-19T03:06:54.174Z,92.58
2022-11-19T03:09:21.722Z,93.22
2022-11-19T03:11:54.210Z,93.54
2022-11-19T03:14:42.714Z,93.48
2022-11-19T03:17:21.204Z,93.32
2022-11-19T03:19:58.121Z,93.09
2022-11-19T03:22:35.913Z,93.03
2022-11-19T03:25:07.269Z,92.68
2022-11-19T03:27:40.586Z,92.59
2022-11-19T03:30:07.996Z,92.28
2022-11-19T03:32:53.050Z,92.02
2022-11-19T03:35:23.317Z,91.89
2022-11-19T03:37:52.947Z,91.76
2022-11-19T03:40:20.248Z,91.34
2022-11-19T03:42:51.373Z,91.39
2022-11-19T03:45:23.376Z,91.41
2022-11-19T03:47:50.445Z,90.93
2022-11-19T03:50:23.663Z,91.12
2022-11-19T03:52:50.139Z,91.23
2022-11-19T03:55:16.658Z,91.05
2022-11-19T03:57:43.295Z,91.17
2022-11-19T04:00:10.396Z,91.25
2022-11-19T04:02:36.847Z,91.25
2022-11-19T04:05:03.302Z,90.89
2022-11-19T04:07:29.790Z,90.68
2022-11-19T04:09:56.291Z,90.75
2022-11-19T04:12:24.409Z,90.19
2022-11-19T04:14:51.549Z,90.63
2022-11-19T04:17:19.138Z,90.46
2022-11-19T04:19:46.514Z,90.36
2022-11-19T04:22:12.948Z,90.05
2022-11-19T04:24:39.517Z,89.57
2022-11-19T04:27:05.993Z,90.08
2022-11-19T04:29:32.453Z,90.12
2022-11-19T04:31:58.904Z,89.89
2022-11-19T04:34:25.349Z,89.59
2022-11-19T04:36:51.789Z,89.50
2022-11-19T04:39:18.741Z,89.21
2022-11-19T04:41:45.522Z,89.11
2022-11-19T04:44:11.968Z,89.15
2022-11-19T04:46:38.477Z,90.02
2022-11-19T04:49:04.916Z,90.17
2022-11-19T04:51:31.374Z,89.96
2022-11-19T04:53:57.816Z,89.92
2022-11-19T04:56:24.306Z,90.61
2022-11-19T04:58:50.752Z,90.84
2022-11-19T05:01:17.497Z,90.39
2022-11-19T05:03:43.994Z,90.70
2022-11-19T05:06:10.437Z,91.27
2022-11-19T05:08:36.880Z,90.52
2022-11-19T05:11:03.324Z,90.44
2022-11-19T05:13:29.770Z,89.91
2022-11-19T05:15:56.227Z,89.76
2022-11-19T05:18:23.941Z,89.63
2022-11-19T05:20:50.381Z,89.74
2022-11-19T05:23:16.883Z,89.18
2022-11-19T05:25:43.365Z,88.97
2022-11-19T05:28:09.995Z,89.09
2022-11-19T05:30:36.488Z,88.93
2022-11-19T05:33:02.924Z,88.73
2022-11-19T05:35:29.386Z,88.70
2022-11-19T05:37:55.825Z,88.27
2022-11-19T05:40:22.306Z,88.18
2022-11-19T05:42:48.758Z,88.35
2022-11-19T05:45:15.245Z,88.28
2022-11-19T05:47:45.995Z,88.24
2022-11-19T05:50:14.996Z,88.55
2022-11-19T05:52:41.549Z,88.41
2022-11-19T05:55:08.030Z,88.61
2022-11-19T05:57:34.566Z,89.21
2022-11-19T06:00:01.015Z,88.80
2022-11-19T06:02:27.570Z,89.22
2022-11-19T06:04:54.128Z,88.62
2022-11-19T06:07:20.631Z,88.90
2022-11-19T06:09:47.151Z,88.80
2022-11-19T06:12:13.610Z,89.04
2022-11-19T06:14:40.186Z,89.02
2022-11-19T06:17:06.702Z,88.98
2022-11-19T06:19:33.232Z,89.63
2022-11-19T06:21:59.686Z,89.75
2022-11-19T06:24:26.288Z,90.43
2022-11-19T06:26:52.733Z,90.46
2022-11-19T06:29:19.476Z,90.92
2022-11-19T06:31:46.836Z,90.94
2022-11-19T06:34:13.348Z,92.85
2022-11-19T06:36:43.927Z,93.44
2022-11-19T06:39:14.230Z,94.29
2022-11-19T06:41:40.676Z,93.97
2022-11-19T06:44:07.198Z,93.75
2022-11-19T06:46:33.655Z,94.27
2022-11-19T06:49:00.129Z,94.82
2022-11-19T06:51:26.589Z,95.08
2022-11-19T06:53:53.044Z,96.00
2022-11-19T06:56:19.507Z,96.17
2022-11-19T06:58:46.036Z,95.98
2022-11-19T07:01:14.320Z,96.23
2022-11-19T07:03:41.230Z,95.69
2022-11-19T07:06:07.670Z,95.05
2022-11-19T07:08:35.527Z,94.39
2022-11-19T07:11:22.800Z,94.50
2022-11-19T07:13:59.775Z,93.96
2022-11-19T07:16:31.755Z,93.27
2022-11-19T07:18:59.398Z,94.06
2022-11-19T07:21:26.184Z,93.87
2022-11-19T07:23:52.695Z,93.49
2022-11-19T07:26:19.208Z,92.61
2022-11-19T07:28:45.652Z,92.79
2022-11-19T07:31:12.150Z,92.35
2022-11-19T07:33:39.349Z,92.04
2022-11-19T07:36:07.583Z,91.71
2022-11-19T07:38:37.103Z,91.89
2022-11-19T07:41:24.869Z,92.05
2022-11-19T07:43:51.343Z,93.37
2022-11-19T07:46:17.788Z,94.51
2022-11-19T07:48:44.250Z,94.85
2022-11-19T07:51:10.710Z,95.79
2022-11-19T07:53:37.161Z,96.05
2022-11-19T07:56:03.925Z,96.83
2022-11-19T07:58:30.371Z,96.60
2022-11-19T08:00:56.855Z,96.77
2022-11-19T08:03:23.310Z,96.76
2022-11-19T08:05:49.755Z,96.48
2022-11-19T08:08:16.215Z,96.47
2022-11-19T08:10:42.708Z,96.46
2022-11-19T08:13:09.160Z,95.83
2022-11-19T08:15:35.600Z,96.13
2022-11-19T08:18:15.497Z,96.72
2022-11-19T08:20:43.657Z,96.75
2022-11-19T08:23:10.526Z,96.33
2022-11-19T08:25:37.206Z,96.49
2022-11-19T08:28:04.759Z,96.31
2022-11-19T08:30:31.863Z,96.38
2022-11-19T08:32:58.445Z,95.95
2022-11-19T08:35:25.146Z,95.90
2022-11-19T08:37:51.622Z,95.94
2022-11-19T08:40:18.195Z,95.89
2022-11-19T08:42:59.729Z,96.19
2022-11-19T08:45:37.597Z,96.40
2022-11-19T08:48:06.396Z,96.54
2022-11-19T08:50:33.283Z,96.78
2022-11-19T08:53:02.011Z,97.27
2022-11-19T08:55:29.846Z,97.36
2022-11-19T08:58:03.970Z,97.46
2022-11-19T09:00:31.385Z,97.51
2022-11-19T09:03:00.612Z,98.06
2022-11-19T09:05:27.302Z,97.77
2022-11-19T09:07:56.766Z,97.69
2022-11-19T09:10:23.299Z,97.29
2022-11-19T09:12:49.737Z,97.09
2022-11-19T09:15:16.246Z,96.79
2022-11-19T09:17:46.826Z,97.29
2022-11-19T09:20:13.791Z,97.44
2022-11-19T09:22:40.607Z,97.31
2022-11-19T09:25:08.845Z,97.06
2022-11-19T09:27:36.314Z,97.04
2022-11-19T09:30:03.405Z,97.35
2022-11-19T09:32:31.193Z,96.47
2022-11-19T09:34:57.725Z,94.53
2022-11-19T09:37:24.194Z,92.90
2022-11-19T09:39:50.713Z,88.85
2022-11-19T09:42:31.672Z,86.26
2022-11-19T09:45:19.108Z,85.11
2022-11-19T09:47:55.496Z,85.36
2022-11-19T09:50:26.996Z,85.68
2022-11-19T09:52:56.362Z,85.46
2022-11-19T09:55:31.501Z,84.49
2022-11-19T09:57:59.438Z,84.16
2022-11-19T10:00:29.171Z,85.21
2022-11-19T10:02:57.276Z,85.20
2022-11-19T10:05:47.350Z,84.90
2022-11-19T10:08:20.771Z,84.73
2022-11-19T10:11:06.399Z,85.09
2022-11-19T10:14:11.311Z,84.57
2022-11-19T10:16:47.960Z,84.20
2022-11-19T10:19:38.867Z,83.52
2022-11-19T10:22:20.459Z,82.26
2022-11-19T10:25:04.293Z,82.04
2022-11-19T10:27:40.969Z,82.25
2022-11-19T10:30:14.444Z,81.43
2022-11-19T10:32:44.280Z,80.78
2022-11-19T10:35:20.135Z,80.50
2022-11-19T10:38:10.893Z,79.25
2022-11-19T10:40:46.838Z,78.55
2022-11-19T10:43:20.656Z,78.22
2022-11-19T10:45:49.557Z,78.99
2022-11-19T10:48:22.343Z,78.27
2022-11-19T10:50:49.622Z,77.61
2022-11-19T10:53:29.122Z,77.25
2022-11-19T10:56:04.870Z,76.51
2022-11-19T10:58:40.584Z,75.71
2022-11-19T11:01:14.928Z,74.01
2022-11-19T11:03:58.524Z,72.69
2022-11-19T11:06:25.001Z,69.42
2022-11-19T11:08:52.209Z,67.93
2022-11-19T11:11:49.504Z,66.57
2022-11-19T11:14:36.509Z,63.54
2022-11-19T11:17:04.900Z,65.07
2022-11-19T11:19:31.942Z,62.64
2022-11-19T11:21:58.458Z,60.92
2022-11-19T11:24:36.306Z,63.30
2022-11-19T11:27:33.563Z,62.61
2022-11-19T11:30:12.194Z,61.71
2022-11-19T11:32:39.421Z,58.70
2022-11-19T11:35:09.935Z,60.11
2022-11-19T11:37:38.756Z,62.34
2022-11-19T11:40:06.114Z,62.83
2022-11-19T11:42:32.665Z,63.13
2022-11-19T11:45:00.758Z,64.68
2022-11-19T11:47:33.606Z,63.21
2022-11-19T11:50:14.586Z,63.63
2022-11-19T11:52:43.046Z,64.31
2022-11-19T11:55:31.611Z,66.24
2022-11-19T11:58:24.273Z,66.52
2022-11-19T12:00:53.351Z,65.91
2022-11-19T12:03:20.141Z,61.95
2022-11-19T12:06:17.810Z,56.97
2022-11-19T12:08:54.828Z,53.26
2022-11-19T12:11:55.419Z,50.97
2022-11-19T12:14:52.173Z,49.11
2022-11-19T12:17:48.296Z,47.73
2022-11-19T12:20:30.960Z,47.14
2022-11-19T12:23:14.029Z,46.09
2022-11-19T12:26:02.477Z,45.11
2022-11-19T12:29:06.897Z,44.79
2022-11-19T12:31:52.294Z,44.17
2022-11-19T12:34:40.395Z,42.56
2022-11-19T12:37:25.804Z,42.96
2022-11-19T12:40:20.537Z,46.12
2022-11-19T12:43:21.341Z,49.87
2022-11-19T12:45:57.485Z,52.40
2022-11-19T12:48:23.882Z,53.95
2022-11-19T12:50:57.346Z,54.95
2022-11-19T12:53:41.874Z,55.47
2022-11-19T12:56:30.802Z,56.38
2022-11-19T12:59:22.837Z,56.62
2022-11-19T13:01:51.407Z,53.96
2022-11-19T13:04:38.898Z,50.33
2022-11-19T13:07:10.610Z,47.56
2022-11-19T13:09:44.123Z,45.52
2022-11-19T13:12:13.717Z,44.46
2022-11-19T13:14:59.567Z,43.24
2022-11-19T13:17:40.259Z,42.85
2022-11-19T13:20:25.970Z,41.55
2022-11-19T13:22:55.997Z,41.91
2022-11-19T13:25:25.668Z,41.51
2022-11-19T13:27:53.596Z,40.86
2022-11-19T13:30:26.696Z,40.37
2022-11-19T13:33:00.882Z,40.32
2022-11-19T13:35:29.222Z,40.06
2022-11-19T13:38:21.262Z,39.97
2022-11-19T13:41:09.091Z,39.72
2022-11-19T13:43:54.149Z,39.21
2022-11-19T13:46:25.263Z,38.80
2022-11-19T13:49:01.517Z,39.12
2022-11-19T13:51:38.188Z,39.28
2022-11-19T13:54:07.147Z,38.82
2022-11-19T13:56:43.777Z,38.84
2022-11-19T13:59:25.834Z,38.75
2022-11-19T14:01:58.924Z,38.47
2022-11-19T14:04:36.000Z,38.36
2022-11-19T14:07:19.035Z,38.45
2022-11-19T14:10:04.301Z,38.95
2022-11-19T14:12:43.848Z,40.22
2022-11-19T14:16:00.199Z,42.88
2022-11-19T14:18:59.692Z,46.47
2022-11-19T14:21:44.608Z,49.21
2022-11-19T14:24:44.824Z,51.61
2022-11-19T14:27:17.199Z,53.16
2022-11-19T14:29:43.550Z,54.65
2022-11-19T14:32:09.879Z,55.86
2022-11-19T14:34:47.745Z,56.98
2022-11-19T14:37:21.197Z,58.37
2022-11-19T14:39:54.795Z,58.69
2022-11-19T14:42:22.123Z,59.80
2022-11-19T14:45:03.713Z,60.77
2022-11-19T14:47:34.481Z,61.33
2022-11-19T14:50:03.508Z,62.30
2022-11-19T14:52:36.335Z,62.01
2022-11-19T14:55:29.092Z,62.60
2022-11-19T14:58:04.547Z,63.82
2022-11-19T15:00:37.420Z,63.56
2022-11-19T15:03:06.478Z,64.60
2022-11-19T15:05:35.659Z,64.39
2022-11-19T15:08:17.145Z,64.16
2022-11-19T15:11:01.842Z,64.90
2022-11-19T15:13:29.967Z,65.70
2022-11-19T15:16:17.180Z,65.69
2022-11-19T15:18:55.076Z,65.95
2022-11-19T15:21:52.610Z,66.99
2022-11-19T15:24:53.161Z,67.54
2022-11-19T15:27:41.867Z,67.26
2022-11-19T15:30:12.811Z,68.08
2022-11-19T15:32:50.069Z,67.66
2022-11-19T15:35:35.833Z,67.96
2022-11-19T15:38:19.916Z,67.65
2022-11-19T15:40:49.592Z,67.61
2022-11-19T15:43:24.046Z,68.27
2022-11-19T15:46:07.670Z,67.84
2022-11-19T15:49:05.271Z,68.40
2022-11-19T15:51:39.788Z,68.75
2022-11-19T15:54:11.665Z,69.56
2022-11-19T15:56:45.962Z,70.05
2022-11-19T15:59:12.982Z,70.52
2022-11-19T16:01:40.948Z,70.33
2022-11-19T16:04:12.837Z,70.56
2022-11-19T16:06:44.722Z,70.66
2022-11-19T16:09:18.622Z,70.73
2022-11-19T16:12:04.471Z,70.83
2022-11-19T16:14:49.390Z,70.81
2022-11-19T16:17:43.044Z,70.87
2022-11-19T16:20:10.114Z,70.80
2022-11-19T16:23:00.206Z,71.06
2022-11-19T16:25:34.341Z,71.69
2022-11-19T16:28:05.093Z,71.93
2022-11-19T16:30:39.805Z,72.49
2022-11-19T16:33:06.445Z,72.80
2022-11-19T16:35:33.192Z,72.98
2022-11-19T16:38:00.745Z,73.08
2022-11-19T16:40:27.572Z,73.28
2022-11-19T16:42:56.464Z,73.66
2022-11-19T16:45:25.666Z,73.89
2022-11-19T16:47:57.379Z,73.72
2022-11-19T16:50:36.341Z,73.76
2022-11-19T16:53:05.567Z,74.52
2022-11-19T16:55:33.963Z,74.07
2022-11-19T16:58:00.323Z,74.55
2022-11-19T17:00:32.917Z,74.91
2022-11-19T17:03:00.037Z,74.92
2022-11-19T17:05:30.277Z,75.20
2022-11-19T17:08:19.583Z,75.28
2022-11-19T17:10:46.433Z,75.32
2022-11-19T17:13:28.454Z,75.73
2022-11-19T17:15:55.015Z,76.28
2022-11-19T17:18:29.097Z,75.82
2022-11-19T17:20:57.152Z,76.17
2022-11-19T17:23:32.112Z,76.38
2022-11-19T17:26:03.543Z,76.45
2022-11-19T17:28:45.297Z,76.60
2022-11-19T17:31:20.041Z,76.30
2022-11-19T17:34:09.601Z,76.73
2022-11-19T17:36:36.474Z,76.45
2022-11-19T17:39:11.582Z,77.08
2022-11-19T17:41:57.499Z,77.16
2022-11-19T17:44:34.610Z,77.35
2022-11-19T17:47:21.225Z,77.03
2022-11-19T17:49:49.402Z,77.89
2022-11-19T17:52:26.968Z,77.77
2022-11-19T17:54:56.162Z,78.24
2022-11-19T17:57:22.668Z,78.16
2022-11-19T17:59:49.167Z,77.66
2022-11-19T18:02:18.103Z,78.18
2022-11-19T18:04:45.387Z,77.69
2022-11-19T18:07:12.396Z,78.47
2022-11-19T18:09:39.552Z,79.15
2022-11-19T18:12:07.322Z,79.23
2022-11-19T18:14:33.772Z,79.91
2022-11-19T18:17:00.313Z,80.32
2022-11-19T18:19:28.613Z,80.48
2022-11-19T18:21:55.480Z,80.37
2022-11-19T18:24:22.235Z,80.46
2022-11-19T18:26:48.723Z,80.14
2022-11-19T18:29:15.223Z,80.20
2022-11-19T18:31:49.044Z,80.24
2022-11-19T18:34:21.428Z,80.55
2022-11-19T18:36:48.202Z,80.97
2022-11-19T18:39:14.965Z,81.34
2022-11-19T18:41:41.662Z,81.39
2022-11-19T18:44:31.103Z,81.89
2022-11-19T18:46:57.724Z,81.93
2022-11-19T18:49:24.346Z,82.28
2022-11-19T18:51:50.911Z,82.92
2022-11-19T18:54:17.374Z,83.25
2022-11-19T18:56:43.925Z,83.76
2022-11-19T18:59:11.949Z,83.84
2022-11-19T19:01:38.906Z,84.04
2022-11-19T19:04:10.075Z,84.20
2022-11-19T19:06:36.603Z,84.19
2022-11-19T19:09:03.661Z,84.86
2022-11-19T19:11:48.740Z,84.53
2022-11-19T19:14:15.339Z,84.64
2022-11-19T19:16:42.044Z,84.87
2022-11-19T19:19:10.112Z,85.04
2022-11-19T19:21:36.757Z,84.70
2022-11-19T19:24:05.237Z,85.15
2022-11-19T19:26:32.058Z,86.01
2022-11-19T19:28:58.649Z,85.72
2022-11-19T19:31:25.221Z,85.97
2022-11-19T19:33:52.348Z,86.02
2022-11-19T19:36:19.884Z,86.21
2022-11-19T19:38:46.967Z,86.04
2022-11-19T19:41:21.543Z,86.43
2022-11-19T19:43:52.774Z,86.79
2022-11-19T19:46:21.268Z,87.25
2022-11-19T19:48:49.548Z,87.52
2022-11-19T19:51:17.066Z,87.09
2022-11-19T19:53:43.932Z,87.10
2022-11-19T19:56:13.257Z,87.73
2022-11-19T19:58:40.802Z,87.74
2022-11-19T20:01:19.102Z,87.59
2022-11-19T20:03:50.410Z,87.62
2022-11-19T20:06:22.193Z,87.31
2022-11-19T20:08:48.832Z,87.49
2022-11-19T20:11:21.187Z,87.58
2022-11-19T20:13:47.869Z,87.72
2022-11-19T20:16:18.441Z,87.68
2022-11-19T20:18:46.531Z,88.03
2022-11-19T20:21:14.929Z,87.77
2022-11-19T20:23:41.819Z,87.64
2022-11-19T20:26:14.680Z,87.45
2022-11-19T20:28:41.368Z,87.86
2022-11-19T20:31:10.545Z,87.79
2022-11-19T20:33:37.775Z,87.82
2022-11-19T20:36:05.002Z,87.66
2022-11-19T20:38:31.569Z,88.14
2022-11-19T20:41:00.218Z,88.84
2022-11-19T20:43:52.437Z,88.74
2022-11-19T20:46:21.411Z,88.89
2022-11-19T20:48:48.605Z,89.13
2022-11-19T20:51:19.760Z,89.13
2022-11-19T20:53:46.548Z,88.88
2022-11-19T20:56:13.720Z,89.30
2022-11-19T20:58:40.169Z,89.60
2022-11-19T21:01:10.217Z,89.91
2022-11-19T21:03:36.908Z,90.21
2022-11-19T21:06:07.739Z,90.15
2022-11-19T21:08:35.848Z,89.67
2022-11-19T21:11:12.593Z,89.92
2022-11-19T21:13:39.335Z,89.50
2022-11-19T21:16:17.374Z,89.74
2022-11-19T21:18:43.907Z,89.81
2022-11-19T21:21:12.546Z,89.34
2022-11-19T21:23:40.260Z,89.10
2022-11-19T21:26:09.910Z,89.10
2022-11-19T21:28:37.489Z,89.08
2022-11-19T21:31:05.166Z,89.36
2022-11-19T21:33:31.689Z,89.77
2022-11-19T21:35:58.894Z,89.63
2022-11-19T21:38:25.969Z,89.46
2022-11-19T21:40:54.057Z,89.60
2022-11-19T21:43:21.032Z,89.58
2022-11-19T21:45:48.877Z,89.24
2022-11-19T21:48:15.896Z,89.65
2022-11-19T21:50:42.707Z,89.69
2022-11-19T21:53:10.050Z,89.87
2022-11-19T21:55:36.627Z,90.07
2022-11-19T21:58:06.610Z,89.58
2022-11-19T22:00:34.182Z,89.41
2022-11-19T22:03:00.921Z,89.47
2022-11-19T22:05:27.772Z,89.46
2022-11-19T22:07:54.215Z,89.71
2022-11-19T22:10:20.666Z,89.16
2022-11-19T22:12:47.115Z,90.18
2022-11-19T22:15:14.439Z,90.01
2022-11-19T22:17:41.023Z,89.90
2022-11-19T22:20:07.928Z,89.53
2022-11-19T22:22:35.603Z,89.50
2022-11-19T22:25:02.117Z,89.45
2022-11-19T22:27:29.334Z,89.71
2022-11-19T22:29:56.731Z,89.58
2022-11-19T22:32:23.319Z,89.51
2022-11-19T22:34:49.786Z,89.46
2022-11-19T22:37:16.256Z,89.62
2022-11-19T22:39:43.825Z,89.13
2022-11-19T22:42:10.321Z,89.38
2022-11-19T22:44:36.943Z,89.19
2022-11-19T22:47:03.420Z,89.11
2022-11-19T22:49:30.040Z,88.72
2022-11-19T22:51:56.499Z,88.81
2022-11-19T22:54:22.946Z,89.07
2022-11-19T22:56:49.436Z,89.30
2022-11-19T22:59:15.885Z,89.21
2022-11-19T23:01:42.372Z,89.03
2022-11-19T23:04:08.823Z,89.28
2022-11-19T23:06:36.671Z,89.45
2022-11-19T23:09:04.450Z,89.01
2022-11-19T23:11:49.456Z,89.50
2022-11-19T23:14:18.022Z,89.34
2022-11-19T23:16:44.825Z,89.49
2022-11-19T23:19:12.445Z,89.57
2022-11-19T23:21:39.203Z,89.65
2022-11-19T23:24:06.326Z,89.91
2022-11-19T23:26:33.356Z,89.35
2022-11-19T23:29:00.004Z,89.65
2022-11-19T23:31:34.642Z,89.80
2022-11-19T23:34:01.186Z,90.17
2022-11-19T23:36:36.553Z,90.39
2022-11-19T23:39:05.106Z,90.22
2022-11-19T23:41:33.407Z,90.22
2022-11-19T23:43:59.880Z,90.13
2022-11-19T23:46:31.552Z,89.97
2022-11-19T23:48:58.747Z,89.83
2022-11-19T23:51:30.461Z,90.25
2022-11-19T23:53:57.316Z,90.11
2022-11-19T23:56:24.373Z,90.40
2022-11-19T23:58:51.190Z,90.30
